createdAt,value
2019-01-25T00:00:54.538Z,21.12
2019-01-25T00:03:43.444Z,20.50
2019-01-25T00:06:32.227Z,19.27
2019-01-25T00:09:21.041Z,23.70
2019-01-25T00:12:09.865Z,22.70
2019-01-25T00:14:58.674Z,21.75
2019-01-25T00:17:47.492Z,21.37
2019-01-25T00:20:36.299Z,20.05
2019-01-25T00:23:17.869Z,26.17
2019-01-25T00:26:06.740Z,20.15
2019-01-25T00:28:55.631Z,21.97
2019-01-25T00:31:44.438Z,17.62
2019-01-25T00:34:33.254Z,26.85
2019-01-25T00:37:22.050Z,20.27
2019-01-25T00:40:31.774Z,20.90
2019-01-25T00:43:20.578Z,18.50
2019-01-25T00:46:09.435Z,19.32
2019-01-25T00:48:58.183Z,19.60
2019-01-25T00:51:47.000Z,19.65
2019-01-25T00:54:35.801Z,21.40
2019-01-25T00:57:24.616Z,19.20
2019-01-25T01:00:32.730Z,19.50
2019-01-25T01:03:21.543Z,17.03
2019-01-25T01:06:10.339Z,20.20
2019-01-25T01:08:59.158Z,20.70
2019-01-25T01:11:47.952Z,18.30
2019-01-25T01:14:36.820Z,20.47
2019-01-25T01:17:17.979Z,22.07
2019-01-25T01:19:59.915Z,22.05
2019-01-25T01:29:11.467Z,20.80
2019-01-25T01:32:00.274Z,23.57
2019-01-25T01:34:49.071Z,17.60
2019-01-25T01:37:37.893Z,19.55
2019-01-25T01:40:26.688Z,20.43
2019-01-25T01:43:15.509Z,15.50
2019-01-25T01:49:18.993Z,21.67
2019-01-25T01:52:07.793Z,20.85
2019-01-25T01:54:56.607Z,19.32
2019-01-25T01:57:45.410Z,19.30
2019-01-25T02:00:34.224Z,19.50
2019-01-25T02:03:23.022Z,19.70
2019-01-25T02:06:11.850Z,23.02
2019-01-25T02:09:00.636Z,20.50
2019-01-25T02:11:49.456Z,21.93
2019-01-25T02:14:38.259Z,21.77
2019-01-25T02:17:27.140Z,23.02
2019-01-25T02:20:10.607Z,20.05
2019-01-25T02:22:59.554Z,19.97
2019-01-25T02:26:07.373Z,18.73
2019-01-25T02:28:56.185Z,20.93
2019-01-25T02:31:44.988Z,22.37
2019-01-25T02:34:33.809Z,29.80
2019-01-25T02:37:22.613Z,20.95
2019-01-25T02:40:38.640Z,22.25
2019-01-25T02:43:22.863Z,22.67
2019-01-25T02:46:11.711Z,21.97
2019-01-25T02:49:00.507Z,22.30
2019-01-25T02:51:49.321Z,22.60
2019-01-25T02:54:38.134Z,23.83
2019-01-25T02:57:26.957Z,27.27
2019-01-25T03:00:36.687Z,22.55
2019-01-25T03:03:25.489Z,18.77
2019-01-25T03:06:14.300Z,23.70
2019-01-25T03:12:12.497Z,23.40
2019-01-25T03:15:01.338Z,25.85
2019-01-25T03:18:09.354Z,25.30
2019-01-25T03:20:51.444Z,22.27
2019-01-25T03:23:40.266Z,23.17
2019-01-25T03:26:29.065Z,22.42
2019-01-25T03:29:17.874Z,19.97
2019-01-25T03:32:06.669Z,29.37
2019-01-25T03:34:55.483Z,23.10
2019-01-25T03:37:44.307Z,20.90
2019-01-25T03:40:33.092Z,26.42
2019-01-25T03:43:21.909Z,24.07
2019-01-25T03:46:10.707Z,24.57
2019-01-25T03:48:59.542Z,23.50
2019-01-25T03:51:48.339Z,26.93
2019-01-25T03:54:37.162Z,28.37
2019-01-25T03:57:25.979Z,25.37
2019-01-25T04:00:35.696Z,24.00
2019-01-25T04:03:24.493Z,22.27
2019-01-25T04:06:13.305Z,24.15
2019-01-25T04:09:02.109Z,40.90
2019-01-25T04:14:45.271Z,24.30
2019-01-25T04:17:53.360Z,27.13
2019-01-25T04:20:35.224Z,25.62
2019-01-25T04:23:24.040Z,27.80
2019-01-25T04:26:12.882Z,30.52
2019-01-25T04:29:01.731Z,30.23
2019-01-25T04:31:50.533Z,27.98
2019-01-25T04:34:39.348Z,27.20
2019-01-25T04:37:28.151Z,27.02
2019-01-25T04:40:37.880Z,25.27
2019-01-25T04:43:26.681Z,27.73
2019-01-25T04:46:15.492Z,29.23
2019-01-25T04:49:04.289Z,27.27
2019-01-25T04:51:53.100Z,29.77
2019-01-25T04:57:49.684Z,28.10
2019-01-25T05:00:38.483Z,25.57
2019-01-25T05:06:36.683Z,30.92
2019-01-25T05:09:25.478Z,23.07
2019-01-25T05:12:14.296Z,27.02
2019-01-25T05:15:03.159Z,31.42
2019-01-25T05:18:12.891Z,29.67
2019-01-25T05:20:54.180Z,31.68
2019-01-25T05:23:42.996Z,28.00
2019-01-25T05:26:31.795Z,33.53
2019-01-25T05:32:35.640Z,31.10
2019-01-25T05:35:24.432Z,25.27
2019-01-25T05:38:13.251Z,30.87
2019-01-25T05:41:02.112Z,29.42
2019-01-25T05:43:50.941Z,28.67
2019-01-25T05:46:39.979Z,27.20
2019-01-25T05:49:28.796Z,28.47
2019-01-25T05:55:46.277Z,30.92
2019-01-25T05:58:35.082Z,30.40
2019-01-25T06:01:23.906Z,31.42
2019-01-25T06:04:12.706Z,28.37
2019-01-25T06:07:01.803Z,29.87
2019-01-25T06:09:50.581Z,27.50
2019-01-25T06:12:39.399Z,23.60
2019-01-25T06:15:49.104Z,28.50
2019-01-25T06:18:37.919Z,27.30
2019-01-25T06:21:19.461Z,26.60
2019-01-25T06:24:08.274Z,30.87
2019-01-25T06:26:57.067Z,26.90
2019-01-25T06:29:45.879Z,24.77
2019-01-25T06:32:34.677Z,26.55
2019-01-25T06:35:23.494Z,26.93
2019-01-25T06:38:12.305Z,25.20
2019-01-25T06:41:01.105Z,28.17
2019-01-25T06:43:49.923Z,21.40
2019-01-25T06:46:38.719Z,27.48
2019-01-25T06:49:27.543Z,25.90
2019-01-25T06:52:16.336Z,24.15
2019-01-25T06:55:26.066Z,25.50
2019-01-25T06:58:33.887Z,26.17
2019-01-25T07:04:21.729Z,25.73
2019-01-25T07:13:35.402Z,23.30
2019-01-25T07:16:24.201Z,21.80
2019-01-25T07:19:13.008Z,21.57
2019-01-25T07:22:01.804Z,23.15
2019-01-25T07:24:56.923Z,21.45
2019-01-25T07:27:41.197Z,22.77
2019-01-25T07:30:30.078Z,22.13
2019-01-25T07:33:19.183Z,20.57
2019-01-25T07:36:08.070Z,23.95
2019-01-25T07:38:56.865Z,22.57
2019-01-25T07:41:45.703Z,23.15
2019-01-25T07:44:34.517Z,26.33
2019-01-25T07:47:23.358Z,23.52
2019-01-25T07:53:40.978Z,22.55
2019-01-25T07:56:29.789Z,21.27
2019-01-25T07:59:18.597Z,20.37
2019-01-25T08:02:07.393Z,19.27
2019-01-25T08:04:56.258Z,18.23
2019-01-25T08:07:45.026Z,21.17
2019-01-25T08:10:35.574Z,21.93
2019-01-25T08:13:24.612Z,20.93
2019-01-25T08:16:14.965Z,22.75
2019-01-25T08:22:24.838Z,17.17
2019-01-25T08:25:13.706Z,17.42
2019-01-25T08:28:02.543Z,22.10
2019-01-25T08:30:51.326Z,19.65
2019-01-25T08:33:41.864Z,21.97
2019-01-25T08:36:30.686Z,20.32
2019-01-25T08:39:19.506Z,16.13
2019-01-25T08:42:15.284Z,17.70
2019-01-25T08:44:59.740Z,20.90
2019-01-25T08:47:49.700Z,23.70
2019-01-25T08:50:38.501Z,20.35
2019-01-25T08:53:27.344Z,19.33
2019-01-25T08:56:16.128Z,21.07
2019-01-25T08:59:05.238Z,21.37
2019-01-25T09:01:54.088Z,20.08
2019-01-25T09:04:42.913Z,18.60
2019-01-25T09:07:31.717Z,19.52
2019-01-25T09:10:41.447Z,18.87
2019-01-25T09:13:30.259Z,19.27
2019-01-25T09:19:13.268Z,20.30
2019-01-25T09:22:02.082Z,21.82
2019-01-25T09:24:43.476Z,21.80
2019-01-25T09:27:32.382Z,21.62
2019-01-25T09:30:42.082Z,21.65
2019-01-25T09:33:30.897Z,20.57
2019-01-25T09:36:19.702Z,22.27
2019-01-25T09:42:23.189Z,19.55
2019-01-25T09:48:27.387Z,19.83
2019-01-25T09:51:16.271Z,20.95
2019-01-25T09:54:25.982Z,20.33
2019-01-25T10:01:08.528Z,21.80
2019-01-25T10:03:57.354Z,21.80
2019-01-25T10:06:46.158Z,19.98
2019-01-25T10:09:34.970Z,21.10
2019-01-25T10:12:23.776Z,21.70
2019-01-25T10:15:31.907Z,23.95
2019-01-25T10:18:24.660Z,22.00
2019-01-25T10:21:11.234Z,23.07
2019-01-25T10:24:00.038Z,23.03
2019-01-25T10:26:48.855Z,19.75
2019-01-25T10:29:37.653Z,21.60
2019-01-25T10:32:26.502Z,20.80
2019-01-25T10:35:15.373Z,17.55
2019-01-25T10:38:04.846Z,23.47
2019-01-25T10:40:54.729Z,21.68
2019-01-25T10:43:43.525Z,18.77
2019-01-25T10:46:32.345Z,19.42
2019-01-25T10:52:15.435Z,22.10
2019-01-25T10:55:25.151Z,19.57
2019-01-25T10:58:14.041Z,23.53
2019-01-25T11:01:02.841Z,21.02
2019-01-25T11:03:51.661Z,22.77
2019-01-25T11:06:40.455Z,21.27
2019-01-25T11:09:29.269Z,20.47
2019-01-25T11:12:10.782Z,19.62
2019-01-25T11:15:01.329Z,22.52
2019-01-25T11:18:09.273Z,22.30
2019-01-25T11:20:58.088Z,25.15
2019-01-25T11:23:46.890Z,21.00
2019-01-25T11:26:35.714Z,22.95
2019-01-25T11:29:24.501Z,18.17
2019-01-25T11:32:13.674Z,22.50
2019-01-25T11:35:02.477Z,19.12
2019-01-25T11:38:10.453Z,22.42
2019-01-25T11:40:59.254Z,21.60
2019-01-25T11:43:48.062Z,20.33
2019-01-25T11:46:36.990Z,19.60
2019-01-25T11:49:25.895Z,19.97
2019-01-25T11:52:14.704Z,20.30
2019-01-25T11:58:18.772Z,19.57
2019-01-25T12:01:07.836Z,20.07
2019-01-25T12:03:56.643Z,19.40
2019-01-25T12:06:45.434Z,23.60
2019-01-25T12:09:34.239Z,18.03
2019-01-25T12:12:16.311Z,19.20
2019-01-25T12:15:26.037Z,19.47
2019-01-25T12:18:14.826Z,26.00
2019-01-25T12:21:03.630Z,19.87
2019-01-25T12:23:52.502Z,21.25
2019-01-25T12:29:35.445Z,18.98
2019-01-25T12:32:24.231Z,19.90
2019-01-25T12:35:32.887Z,18.77
2019-01-25T12:38:21.692Z,19.00
2019-01-25T12:41:10.485Z,21.37
2019-01-25T12:43:59.287Z,18.70
2019-01-25T12:46:48.091Z,17.87
2019-01-25T12:49:36.901Z,20.47
2019-01-25T12:52:25.721Z,18.90
2019-01-25T12:55:14.503Z,19.13
2019-01-25T13:03:57.579Z,18.90
2019-01-25T13:06:46.373Z,16.45
2019-01-25T13:09:35.182Z,19.70
2019-01-25T13:12:16.944Z,18.30
2019-01-25T13:15:26.642Z,18.73
2019-01-25T13:18:15.454Z,20.30
2019-01-25T13:21:04.314Z,20.50
2019-01-25T13:23:53.218Z,19.67
2019-01-25T13:26:42.018Z,22.15
2019-01-25T13:29:30.823Z,21.87
2019-01-25T13:32:19.773Z,21.48
2019-01-25T13:35:10.000Z,20.87
2019-01-25T13:37:59.241Z,19.07
2019-01-25T13:40:48.042Z,21.57
2019-01-25T13:43:39.149Z,20.67
2019-01-25T13:46:27.362Z,27.70
2019-01-25T13:49:16.147Z,21.77
2019-01-25T13:52:05.029Z,26.30
2019-01-25T13:54:53.818Z,23.87
2019-01-25T13:58:01.718Z,21.03
2019-01-25T14:00:50.501Z,21.70
2019-01-25T14:03:32.095Z,19.57
2019-01-25T14:06:20.881Z,23.03
2019-01-25T14:09:09.873Z,21.62
2019-01-25T14:11:58.663Z,25.90
2019-01-25T14:14:48.991Z,27.70
2019-01-25T14:17:37.997Z,25.33
2019-01-25T14:20:46.125Z,23.33
2019-01-25T14:23:34.918Z,23.20
2019-01-25T14:26:23.727Z,24.93
2019-01-25T14:29:12.517Z,21.07
2019-01-25T14:32:01.343Z,22.90
2019-01-25T14:34:50.130Z,21.30
2019-01-25T14:37:38.944Z,21.33
2019-01-25T14:40:27.826Z,22.97
2019-01-25T14:43:16.619Z,21.45
2019-01-25T14:46:05.599Z,27.50
2019-01-25T14:48:54.381Z,21.67
2019-01-25T14:51:43.191Z,25.07
2019-01-25T14:54:31.980Z,29.07
2019-01-25T14:57:21.663Z,23.42
2019-01-25T15:03:19.840Z,24.40
2019-01-25T15:06:27.659Z,22.70
2019-01-25T15:09:16.832Z,25.10
2019-01-25T15:12:25.363Z,22.60
2019-01-25T15:15:35.078Z,26.30
2019-01-25T15:18:23.889Z,27.30
2019-01-25T15:21:12.669Z,28.20
2019-01-25T15:24:01.501Z,27.90
2019-01-25T15:26:50.303Z,27.67
2019-01-25T15:29:39.099Z,31.20
2019-01-25T15:32:27.911Z,26.33
2019-01-25T15:35:37.632Z,27.93
2019-01-25T15:38:26.469Z,30.07
2019-01-25T15:41:15.447Z,27.10
2019-01-25T15:47:32.746Z,34.77
2019-01-25T15:50:40.911Z,30.83
2019-01-25T15:53:29.753Z,32.03
2019-01-25T15:56:18.684Z,32.80
2019-01-25T15:59:00.871Z,30.33
2019-01-25T16:01:49.729Z,30.00
2019-01-25T16:04:38.609Z,28.37
2019-01-25T16:07:27.452Z,28.77
2019-01-25T16:10:37.225Z,29.80
2019-01-25T16:13:26.045Z,32.67
2019-01-25T16:16:14.968Z,36.50
2019-01-25T16:19:03.816Z,38.77
2019-01-25T16:24:46.804Z,45.00
2019-01-25T16:27:35.769Z,41.90
2019-01-25T16:30:43.946Z,45.17
2019-01-25T16:33:32.827Z,51.70
2019-01-25T16:36:21.655Z,48.67
2019-01-25T16:39:10.533Z,42.87
2019-01-25T16:41:59.355Z,41.40
2019-01-25T16:44:48.235Z,37.67
2019-01-25T16:50:44.787Z,45.30
2019-01-25T16:53:33.626Z,43.87
2019-01-25T16:56:15.418Z,45.17
2019-01-25T17:02:32.642Z,41.57
2019-01-25T17:05:21.502Z,37.07
2019-01-25T17:08:10.386Z,36.60
2019-01-25T17:10:59.178Z,36.60
2019-01-25T17:13:48.062Z,39.45
2019-01-25T17:19:44.610Z,35.03
2019-01-25T17:22:33.409Z,39.07
2019-01-25T17:25:22.497Z,37.70
2019-01-25T17:28:11.280Z,37.60
2019-01-25T17:31:00.082Z,34.70
2019-01-25T17:33:48.877Z,33.47
2019-01-25T17:36:37.694Z,35.80
2019-01-25T17:39:27.505Z,33.17
2019-01-25T17:42:17.014Z,35.97
2019-01-25T17:45:26.728Z,38.07
2019-01-25T17:48:15.527Z,31.47
2019-01-25T17:51:04.310Z,39.53
2019-01-25T17:53:53.255Z,38.90
2019-01-25T17:56:34.686Z,33.30
2019-01-25T17:59:23.501Z,36.03
2019-01-25T18:02:12.403Z,31.23
2019-01-25T18:05:01.183Z,34.97
2019-01-25T18:07:50.001Z,32.90
2019-01-25T18:10:38.802Z,35.50
2019-01-25T18:13:28.689Z,32.73
2019-01-25T18:16:37.149Z,39.87
2019-01-25T18:19:26.056Z,36.07
2019-01-25T18:22:14.917Z,39.30
2019-01-25T18:28:39.488Z,35.27
2019-01-25T18:31:49.213Z,33.07
2019-01-25T18:34:38.065Z,35.53
2019-01-25T18:37:26.883Z,35.60
2019-01-25T18:40:15.688Z,36.80
2019-01-25T18:43:23.966Z,32.85
2019-01-25T18:46:12.778Z,37.77
2019-01-25T18:49:01.562Z,37.78
2019-01-25T18:51:50.370Z,31.90
2019-01-25T18:54:39.176Z,36.07
2019-01-25T18:57:21.331Z,35.17
2019-01-25T19:00:31.049Z,28.60
2019-01-25T19:03:19.849Z,30.93
2019-01-25T19:06:08.683Z,28.83
2019-01-25T19:08:57.541Z,28.30
2019-01-25T19:11:46.360Z,28.37
2019-01-25T19:14:35.150Z,31.20
2019-01-25T19:17:24.013Z,26.63
2019-01-25T19:23:41.541Z,26.67
2019-01-25T19:26:30.352Z,32.63
2019-01-25T19:29:19.153Z,25.90
2019-01-25T19:32:27.370Z,24.27
2019-01-25T19:35:16.277Z,25.10
2019-01-25T19:41:34.147Z,23.30
2019-01-25T19:44:42.150Z,32.45
2019-01-25T19:50:46.135Z,27.20
2019-01-25T19:56:23.255Z,26.90
2019-01-25T19:59:32.617Z,21.93
2019-01-25T20:02:56.073Z,18.30
2019-01-25T20:08:43.387Z,19.97
2019-01-25T20:12:06.477Z,19.33
2019-01-25T20:15:03.553Z,22.43
2019-01-25T20:18:28.381Z,19.83
2019-01-25T20:24:52.192Z,24.10
2019-01-25T20:31:33.456Z,21.07
2019-01-25T20:38:10.962Z,18.67
2019-01-25T20:44:52.491Z,23.53
2019-01-25T20:47:33.626Z,20.07
2019-01-25T20:50:56.738Z,21.70
2019-01-25T20:56:40.796Z,17.90
2019-01-25T21:00:08.220Z,17.60
2019-01-25T21:13:00.275Z,19.43
2019-01-25T21:26:10.051Z,16.17
2019-01-25T21:29:18.148Z,17.83
2019-01-25T21:42:02.624Z,20.60
2019-01-25T21:45:14.467Z,16.00
2019-01-25T21:48:23.585Z,20.67
2019-01-25T21:54:30.003Z,20.77
2019-01-25T21:57:12.427Z,18.37
2019-01-25T22:00:01.374Z,14.70
2019-01-25T22:02:50.400Z,18.90
2019-01-25T22:08:33.423Z,16.60
2019-01-25T22:11:22.322Z,11.87
2019-01-25T22:14:11.121Z,13.73
2019-01-25T22:17:19.292Z,14.10
2019-01-25T22:20:29.004Z,12.77
2019-01-25T22:26:12.403Z,17.60
2019-01-25T22:29:01.210Z,14.23
2019-01-25T22:31:50.013Z,13.70
2019-01-25T22:34:38.832Z,11.80
2019-01-25T22:37:27.627Z,12.40
2019-01-25T22:40:37.345Z,12.73
2019-01-25T22:43:26.142Z,11.80
2019-01-25T22:46:14.957Z,15.10
2019-01-25T22:49:03.743Z,14.97
2019-01-25T22:51:52.555Z,15.60
2019-01-25T22:54:41.367Z,11.93
2019-01-25T22:57:22.588Z,12.30
2019-01-25T23:00:51.335Z,10.23
2019-01-25T23:04:01.052Z,14.30
2019-01-25T23:06:49.848Z,11.40
2019-01-25T23:09:38.667Z,11.57
2019-01-25T23:12:27.465Z,12.57
2019-01-25T23:15:16.548Z,12.67
2019-01-25T23:18:05.505Z,14.00
2019-01-25T23:20:54.415Z,13.30
2019-01-25T23:23:43.221Z,14.10
2019-01-25T23:26:32.038Z,12.23
2019-01-25T23:29:20.843Z,13.43
2019-01-25T23:32:09.649Z,13.07
2019-01-25T23:34:58.451Z,11.07
2019-01-25T23:37:47.260Z,11.87
2019-01-25T23:40:36.049Z,11.70
2019-01-25T23:43:24.857Z,11.25
2019-01-25T23:46:14.000Z,14.90
2019-01-25T23:49:04.260Z,14.43
2019-01-25T23:51:53.047Z,11.67
2019-01-25T23:54:41.857Z,11.27
2019-01-25T23:57:23.649Z,10.40
